sensor_id;sensor_type;location;lat;lon;timestamp;P1;durP1;ratioP1;P2;durP2;ratioP2
72408;SDS011;60402;48.082;11.628;2022-08-21T00:01:54;3.03;;;1.23;;
72408;SDS011;60402;48.082;11.628;2022-08-21T00:04:19;3.50;;;1.50;;
72408;SDS011;60402;48.082;11.628;2022-08-21T00:06:44;3.90;;;1.40;;
72408;SDS011;60402;48.082;11.628;2022-08-21T00:09:10;3.72;;;1.45;;
72408;SDS011;60402;48.082;11.628;2022-08-21T00:11:36;3.40;;;1.48;;
72408;SDS011;60402;48.082;11.628;2022-08-21T00:14:03;3.15;;;1.35;;
72408;SDS011;60402;48.082;11.628;2022-08-21T00:16:31;2.80;;;1.33;;
72408;SDS011;60402;48.082;11.628;2022-08-21T00:18:57;2.67;;;1.10;;
72408;SDS011;60402;48.082;11.628;2022-08-21T00:21:22;3.83;;;1.40;;
72408;SDS011;60402;48.082;11.628;2022-08-21T00:23:47;3.30;;;1.40;;
72408;SDS011;60402;48.082;11.628;2022-08-21T00:26:13;2.80;;;1.20;;
72408;SDS011;60402;48.082;11.628;2022-08-21T00:28:38;2.53;;;1.20;;
72408;SDS011;60402;48.082;11.628;2022-08-21T00:31:04;3.00;;;1.38;;
72408;SDS011;60402;48.082;11.628;2022-08-21T00:33:29;3.28;;;1.17;;
72408;SDS011;60402;48.082;11.628;2022-08-21T00:35:56;7.10;;;2.08;;
72408;SDS011;60402;48.082;11.628;2022-08-21T00:38:21;2.10;;;1.13;;
72408;SDS011;60402;48.082;11.628;2022-08-21T00:40:50;3.10;;;1.15;;
72408;SDS011;60402;48.082;11.628;2022-08-21T00:43:20;2.92;;;1.10;;
72408;SDS011;60402;48.082;11.628;2022-08-21T00:45:48;2.97;;;1.40;;
72408;SDS011;60402;48.082;11.628;2022-08-21T00:48:14;2.83;;;1.00;;
72408;SDS011;60402;48.082;11.628;2022-08-21T00:50:42;1.67;;;0.88;;
72408;SDS011;60402;48.082;11.628;2022-08-21T00:53:11;2.83;;;1.10;;
72408;SDS011;60402;48.082;11.628;2022-08-21T00:55:38;2.10;;;1.15;;
72408;SDS011;60402;48.082;11.628;2022-08-21T00:58:06;1.75;;;0.90;;
72408;SDS011;60402;48.082;11.628;2022-08-21T01:00:35;1.70;;;1.00;;
72408;SDS011;60402;48.082;11.628;2022-08-21T01:03:05;1.42;;;0.90;;
72408;SDS011;60402;48.082;11.628;2022-08-21T01:05:35;4.53;;;1.30;;
72408;SDS011;60402;48.082;11.628;2022-08-21T01:08:01;3.50;;;1.17;;
72408;SDS011;60402;48.082;11.628;2022-08-21T01:10:27;2.17;;;0.90;;
72408;SDS011;60402;48.082;11.628;2022-08-21T01:12:53;2.63;;;1.20;;
72408;SDS011;60402;48.082;11.628;2022-08-21T01:15:21;2.45;;;0.90;;
72408;SDS011;60402;48.082;11.628;2022-08-21T01:20:15;1.35;;;0.85;;
72408;SDS011;60402;48.082;11.628;2022-08-21T01:22:41;2.33;;;1.08;;
72408;SDS011;60402;48.082;11.628;2022-08-21T01:25:07;1.98;;;0.85;;
72408;SDS011;60402;48.082;11.628;2022-08-21T01:27:33;2.75;;;1.17;;
72408;SDS011;60402;48.082;11.628;2022-08-21T01:30:02;3.20;;;1.08;;
72408;SDS011;60402;48.082;11.628;2022-08-21T01:32:34;2.85;;;1.10;;
72408;SDS011;60402;48.082;11.628;2022-08-21T01:35:00;2.60;;;0.98;;
72408;SDS011;60402;48.082;11.628;2022-08-21T01:37:26;1.60;;;0.75;;
72408;SDS011;60402;48.082;11.628;2022-08-21T01:39:51;2.30;;;0.80;;
72408;SDS011;60402;48.082;11.628;2022-08-21T01:42:17;1.83;;;0.93;;
72408;SDS011;60402;48.082;11.628;2022-08-21T01:44:43;2.33;;;1.20;;
72408;SDS011;60402;48.082;11.628;2022-08-21T01:47:09;2.35;;;1.05;;
72408;SDS011;60402;48.082;11.628;2022-08-21T01:49:36;1.30;;;0.70;;
72408;SDS011;60402;48.082;11.628;2022-08-21T01:52:02;3.00;;;1.08;;
72408;SDS011;60402;48.082;11.628;2022-08-21T01:54:28;2.38;;;0.90;;
72408;SDS011;60402;48.082;11.628;2022-08-21T01:56:55;3.72;;;1.10;;
72408;SDS011;60402;48.082;11.628;2022-08-21T01:59:21;1.77;;;0.93;;
72408;SDS011;60402;48.082;11.628;2022-08-21T02:01:48;2.50;;;1.10;;
72408;SDS011;60402;48.082;11.628;2022-08-21T02:04:14;1.88;;;1.00;;
72408;SDS011;60402;48.082;11.628;2022-08-21T02:06:39;2.25;;;1.10;;
72408;SDS011;60402;48.082;11.628;2022-08-21T02:09:05;2.13;;;1.00;;
72408;SDS011;60402;48.082;11.628;2022-08-21T02:11:33;2.88;;;1.05;;
72408;SDS011;60402;48.082;11.628;2022-08-21T02:13:59;1.88;;;1.00;;
72408;SDS011;60402;48.082;11.628;2022-08-21T02:16:25;1.70;;;0.93;;
72408;SDS011;60402;48.082;11.628;2022-08-21T02:18:51;2.65;;;0.90;;
72408;SDS011;60402;48.082;11.628;2022-08-21T02:21:16;2.35;;;1.15;;
72408;SDS011;60402;48.082;11.628;2022-08-21T02:23:42;1.95;;;1.00;;
72408;SDS011;60402;48.082;11.628;2022-08-21T02:26:07;2.03;;;1.00;;
72408;SDS011;60402;48.082;11.628;2022-08-21T02:28:34;1.73;;;1.00;;
72408;SDS011;60402;48.082;11.628;2022-08-21T02:31:00;2.03;;;1.00;;
72408;SDS011;60402;48.082;11.628;2022-08-21T02:33:26;1.40;;;0.85;;
72408;SDS011;60402;48.082;11.628;2022-08-21T02:35:52;1.35;;;0.88;;
72408;SDS011;60402;48.082;11.628;2022-08-21T02:38:21;3.50;;;1.20;;
72408;SDS011;60402;48.082;11.628;2022-08-21T02:40:49;2.55;;;1.08;;
72408;SDS011;60402;48.082;11.628;2022-08-21T02:43:16;3.33;;;0.85;;
72408;SDS011;60402;48.082;11.628;2022-08-21T02:45:44;2.22;;;0.98;;
72408;SDS011;60402;48.082;11.628;2022-08-21T02:48:11;1.88;;;1.10;;
72408;SDS011;60402;48.082;11.628;2022-08-21T02:50:44;2.20;;;1.00;;
72408;SDS011;60402;48.082;11.628;2022-08-21T02:53:16;2.47;;;1.20;;
72408;SDS011;60402;48.082;11.628;2022-08-21T02:55:42;1.65;;;1.00;;
72408;SDS011;60402;48.082;11.628;2022-08-21T02:58:10;2.83;;;1.00;;
72408;SDS011;60402;48.082;11.628;2022-08-21T03:00:36;3.38;;;1.13;;
72408;SDS011;60402;48.082;11.628;2022-08-21T03:03:02;2.00;;;1.10;;
72408;SDS011;60402;48.082;11.628;2022-08-21T03:05:29;2.42;;;1.05;;
72408;SDS011;60402;48.082;11.628;2022-08-21T03:07:57;1.83;;;1.10;;
72408;SDS011;60402;48.082;11.628;2022-08-21T03:10:23;2.33;;;1.00;;
72408;SDS011;60402;48.082;11.628;2022-08-21T03:12:50;1.83;;;1.10;;
72408;SDS011;60402;48.082;11.628;2022-08-21T03:15:17;2.17;;;1.08;;
72408;SDS011;60402;48.082;11.628;2022-08-21T03:17:45;1.92;;;1.00;;
72408;SDS011;60402;48.082;11.628;2022-08-21T03:20:12;3.10;;;1.02;;
72408;SDS011;60402;48.082;11.628;2022-08-21T03:22:40;2.45;;;1.30;;
72408;SDS011;60402;48.082;11.628;2022-08-21T03:25:06;2.85;;;1.20;;
72408;SDS011;60402;48.082;11.628;2022-08-21T03:27:33;3.63;;;1.13;;
72408;SDS011;60402;48.082;11.628;2022-08-21T03:30:00;2.20;;;1.10;;
72408;SDS011;60402;48.082;11.628;2022-08-21T03:32:26;2.25;;;1.08;;
72408;SDS011;60402;48.082;11.628;2022-08-21T03:34:51;2.75;;;1.08;;
72408;SDS011;60402;48.082;11.628;2022-08-21T03:37:17;2.35;;;1.02;;
72408;SDS011;60402;48.082;11.628;2022-08-21T03:39:42;5.50;;;1.30;;
72408;SDS011;60402;48.082;11.628;2022-08-21T03:42:09;2.50;;;1.17;;
72408;SDS011;60402;48.082;11.628;2022-08-21T03:44:35;2.90;;;0.98;;
72408;SDS011;60402;48.082;11.628;2022-08-21T03:47:01;1.90;;;0.90;;
72408;SDS011;60402;48.082;11.628;2022-08-21T03:49:27;3.17;;;1.35;;
72408;SDS011;60402;48.082;11.628;2022-08-21T03:51:53;2.42;;;1.20;;
72408;SDS011;60402;48.082;11.628;2022-08-21T03:54:18;2.75;;;1.50;;
72408;SDS011;60402;48.082;11.628;2022-08-21T03:56:44;2.40;;;1.20;;
72408;SDS011;60402;48.082;11.628;2022-08-21T03:59:09;2.00;;;1.00;;
72408;SDS011;60402;48.082;11.628;2022-08-21T04:01:35;2.80;;;0.98;;
72408;SDS011;60402;48.082;11.628;2022-08-21T04:04:01;2.38;;;1.10;;
72408;SDS011;60402;48.082;11.628;2022-08-21T04:06:27;2.70;;;1.20;;
72408;SDS011;60402;48.082;11.628;2022-08-21T04:08:53;2.38;;;1.08;;
72408;SDS011;60402;48.082;11.628;2022-08-21T04:11:19;1.50;;;1.00;;
72408;SDS011;60402;48.082;11.628;2022-08-21T04:13:44;3.47;;;1.30;;
72408;SDS011;60402;48.082;11.628;2022-08-21T04:16:09;3.08;;;1.00;;
72408;SDS011;60402;48.082;11.628;2022-08-21T04:18:35;2.67;;;1.27;;
72408;SDS011;60402;48.082;11.628;2022-08-21T04:21:00;2.85;;;1.23;;
72408;SDS011;60402;48.082;11.628;2022-08-21T04:23:27;2.55;;;1.02;;
72408;SDS011;60402;48.082;11.628;2022-08-21T04:25:53;2.50;;;1.08;;
72408;SDS011;60402;48.082;11.628;2022-08-21T04:28:20;2.00;;;1.05;;
72408;SDS011;60402;48.082;11.628;2022-08-21T04:30:46;3.55;;;1.23;;
72408;SDS011;60402;48.082;11.628;2022-08-21T04:33:12;3.47;;;1.33;;
72408;SDS011;60402;48.082;11.628;2022-08-21T04:35:37;3.92;;;1.00;;
72408;SDS011;60402;48.082;11.628;2022-08-21T04:38:02;1.38;;;0.82;;
72408;SDS011;60402;48.082;11.628;2022-08-21T04:40:28;2.45;;;1.10;;
72408;SDS011;60402;48.082;11.628;2022-08-21T04:42:58;2.30;;;1.10;;
72408;SDS011;60402;48.082;11.628;2022-08-21T04:45:31;2.20;;;1.20;;
72408;SDS011;60402;48.082;11.628;2022-08-21T04:47:59;2.30;;;0.98;;
72408;SDS011;60402;48.082;11.628;2022-08-21T04:50:27;2.78;;;1.10;;
72408;SDS011;60402;48.082;11.628;2022-08-21T04:53:01;1.92;;;1.10;;
72408;SDS011;60402;48.082;11.628;2022-08-21T04:55:26;2.78;;;1.02;;
72408;SDS011;60402;48.082;11.628;2022-08-21T04:57:53;1.70;;;0.95;;
72408;SDS011;60402;48.082;11.628;2022-08-21T05:00:22;2.28;;;1.20;;
72408;SDS011;60402;48.082;11.628;2022-08-21T05:02:49;3.45;;;1.23;;
72408;SDS011;60402;48.082;11.628;2022-08-21T05:05:19;2.03;;;1.00;;
72408;SDS011;60402;48.082;11.628;2022-08-21T05:07:45;2.20;;;0.95;;
72408;SDS011;60402;48.082;11.628;2022-08-21T05:10:12;1.90;;;1.02;;
72408;SDS011;60402;48.082;11.628;2022-08-21T05:12:39;1.95;;;1.20;;
72408;SDS011;60402;48.082;11.628;2022-08-21T05:15:06;2.88;;;1.00;;
72408;SDS011;60402;48.082;11.628;2022-08-21T05:17:32;2.17;;;0.98;;
72408;SDS011;60402;48.082;11.628;2022-08-21T05:19:57;2.30;;;1.10;;
72408;SDS011;60402;48.082;11.628;2022-08-21T05:22:23;3.17;;;1.20;;
72408;SDS011;60402;48.082;11.628;2022-08-21T05:24:49;2.30;;;1.10;;
72408;SDS011;60402;48.082;11.628;2022-08-21T05:27:15;3.53;;;1.17;;
72408;SDS011;60402;48.082;11.628;2022-08-21T05:29:40;2.97;;;1.00;;
72408;SDS011;60402;48.082;11.628;2022-08-21T05:32:10;2.60;;;1.10;;
72408;SDS011;60402;48.082;11.628;2022-08-21T05:34:37;3.20;;;1.00;;
72408;SDS011;60402;48.082;11.628;2022-08-21T05:37:02;1.90;;;1.10;;
72408;SDS011;60402;48.082;11.628;2022-08-21T05:39:28;1.60;;;1.05;;
72408;SDS011;60402;48.082;11.628;2022-08-21T05:41:53;2.67;;;1.10;;
72408;SDS011;60402;48.082;11.628;2022-08-21T05:44:19;2.45;;;1.10;;
72408;SDS011;60402;48.082;11.628;2022-08-21T05:46:44;2.80;;;1.00;;
72408;SDS011;60402;48.082;11.628;2022-08-21T05:49:10;2.17;;;1.00;;
72408;SDS011;60402;48.082;11.628;2022-08-21T05:51:36;1.58;;;0.90;;
72408;SDS011;60402;48.082;11.628;2022-08-21T05:54:03;2.30;;;1.13;;
72408;SDS011;60402;48.082;11.628;2022-08-21T05:56:29;1.95;;;1.02;;
72408;SDS011;60402;48.082;11.628;2022-08-21T05:58:54;2.50;;;1.10;;
72408;SDS011;60402;48.082;11.628;2022-08-21T06:01:20;2.67;;;0.80;;
72408;SDS011;60402;48.082;11.628;2022-08-21T06:03:45;1.67;;;1.00;;
72408;SDS011;60402;48.082;11.628;2022-08-21T06:06:11;1.70;;;0.85;;
72408;SDS011;60402;48.082;11.628;2022-08-21T06:08:36;2.25;;;1.02;;
72408;SDS011;60402;48.082;11.628;2022-08-21T06:11:03;2.45;;;0.80;;
72408;SDS011;60402;48.082;11.628;2022-08-21T06:13:29;3.47;;;1.00;;
72408;SDS011;60402;48.082;11.628;2022-08-21T06:16:28;1.60;;;0.75;;
72408;SDS011;60402;48.082;11.628;2022-08-21T06:18:47;2.55;;;0.80;;
72408;SDS011;60402;48.082;11.628;2022-08-21T06:21:13;2.17;;;1.05;;
72408;SDS011;60402;48.082;11.628;2022-08-21T06:23:39;5.05;;;1.20;;
72408;SDS011;60402;48.082;11.628;2022-08-21T06:26:06;6.78;;;1.23;;
72408;SDS011;60402;48.082;11.628;2022-08-21T06:28:33;2.05;;;1.00;;
72408;SDS011;60402;48.082;11.628;2022-08-21T06:30:59;1.88;;;0.90;;
72408;SDS011;60402;48.082;11.628;2022-08-21T06:33:25;3.28;;;1.25;;
72408;SDS011;60402;48.082;11.628;2022-08-21T06:35:50;1.42;;;0.90;;
72408;SDS011;60402;48.082;11.628;2022-08-21T06:38:16;1.92;;;1.10;;
72408;SDS011;60402;48.082;11.628;2022-08-21T06:40:41;2.45;;;0.82;;
72408;SDS011;60402;48.082;11.628;2022-08-21T06:43:11;3.65;;;1.00;;
72408;SDS011;60402;48.082;11.628;2022-08-21T06:45:38;2.05;;;0.93;;
72408;SDS011;60402;48.082;11.628;2022-08-21T06:48:04;2.63;;;1.00;;
72408;SDS011;60402;48.082;11.628;2022-08-21T06:50:32;2.22;;;0.90;;
72408;SDS011;60402;48.082;11.628;2022-08-21T06:53:09;1.10;;;0.75;;
72408;SDS011;60402;48.082;11.628;2022-08-21T06:55:37;1.83;;;1.10;;
72408;SDS011;60402;48.082;11.628;2022-08-21T06:58:03;2.05;;;1.00;;
72408;SDS011;60402;48.082;11.628;2022-08-21T07:00:29;1.55;;;1.00;;
72408;SDS011;60402;48.082;11.628;2022-08-21T07:02:55;2.33;;;0.93;;
72408;SDS011;60402;48.082;11.628;2022-08-21T07:05:21;4.75;;;0.80;;
72408;SDS011;60402;48.082;11.628;2022-08-21T07:07:46;3.40;;;1.08;;
72408;SDS011;60402;48.082;11.628;2022-08-21T07:10:13;2.20;;;1.00;;
72408;SDS011;60402;48.082;11.628;2022-08-21T07:12:39;1.77;;;1.00;;
72408;SDS011;60402;48.082;11.628;2022-08-21T07:15:06;2.60;;;0.88;;
72408;SDS011;60402;48.082;11.628;2022-08-21T07:17:32;2.22;;;0.95;;
72408;SDS011;60402;48.082;11.628;2022-08-21T07:19:57;2.97;;;0.90;;
72408;SDS011;60402;48.082;11.628;2022-08-21T07:22:23;2.58;;;0.90;;
72408;SDS011;60402;48.082;11.628;2022-08-21T07:24:48;2.05;;;0.95;;
72408;SDS011;60402;48.082;11.628;2022-08-21T07:27:13;3.78;;;1.20;;
72408;SDS011;60402;48.082;11.628;2022-08-21T07:29:39;2.53;;;1.00;;
72408;SDS011;60402;48.082;11.628;2022-08-21T07:32:04;1.55;;;0.95;;
72408;SDS011;60402;48.082;11.628;2022-08-21T07:34:30;2.72;;;1.10;;
72408;SDS011;60402;48.082;11.628;2022-08-21T07:36:56;2.35;;;0.90;;
72408;SDS011;60402;48.082;11.628;2022-08-21T07:39:22;1.27;;;0.90;;
72408;SDS011;60402;48.082;11.628;2022-08-21T07:41:47;1.42;;;0.85;;
72408;SDS011;60402;48.082;11.628;2022-08-21T07:44:12;3.20;;;0.98;;
72408;SDS011;60402;48.082;11.628;2022-08-21T07:46:38;2.47;;;0.98;;
72408;SDS011;60402;48.082;11.628;2022-08-21T07:49:03;2.42;;;0.90;;
72408;SDS011;60402;48.082;11.628;2022-08-21T07:51:29;1.95;;;0.90;;
72408;SDS011;60402;48.082;11.628;2022-08-21T07:53:55;1.63;;;0.88;;
72408;SDS011;60402;48.082;11.628;2022-08-21T07:58:47;2.23;;;1.10;;
72408;SDS011;60402;48.082;11.628;2022-08-21T08:01:14;2.40;;;1.05;;
72408;SDS011;60402;48.082;11.628;2022-08-21T08:03:39;2.97;;;1.10;;
72408;SDS011;60402;48.082;11.628;2022-08-21T08:06:06;2.03;;;0.95;;
72408;SDS011;60402;48.082;11.628;2022-08-21T08:08:33;2.55;;;1.00;;
72408;SDS011;60402;48.082;11.628;2022-08-21T08:10:59;2.10;;;1.05;;
72408;SDS011;60402;48.082;11.628;2022-08-21T08:13:26;2.20;;;1.00;;
72408;SDS011;60402;48.082;11.628;2022-08-21T08:15:52;1.77;;;0.95;;
72408;SDS011;60402;48.082;11.628;2022-08-21T08:18:17;3.13;;;1.30;;
72408;SDS011;60402;48.082;11.628;2022-08-21T08:20:42;3.40;;;1.20;;
72408;SDS011;60402;48.082;11.628;2022-08-21T08:23:11;2.25;;;1.30;;
72408;SDS011;60402;48.082;11.628;2022-08-21T08:25:38;3.13;;;1.15;;
72408;SDS011;60402;48.082;11.628;2022-08-21T08:28:04;2.40;;;1.15;;
72408;SDS011;60402;48.082;11.628;2022-08-21T08:30:30;3.20;;;1.30;;
72408;SDS011;60402;48.082;11.628;2022-08-21T08:32:56;2.33;;;1.20;;
72408;SDS011;60402;48.082;11.628;2022-08-21T08:35:22;2.83;;;1.10;;
72408;SDS011;60402;48.082;11.628;2022-08-21T08:37:48;3.42;;;1.30;;
72408;SDS011;60402;48.082;11.628;2022-08-21T08:40:14;2.65;;;1.20;;
72408;SDS011;60402;48.082;11.628;2022-08-21T08:43:04;2.80;;;1.20;;
72408;SDS011;60402;48.082;11.628;2022-08-21T08:45:35;4.50;;;1.27;;
72408;SDS011;60402;48.082;11.628;2022-08-21T08:48:04;3.30;;;1.30;;
72408;SDS011;60402;48.082;11.628;2022-08-21T08:50:52;2.90;;;1.60;;
72408;SDS011;60402;48.082;11.628;2022-08-21T08:53:25;3.80;;;1.45;;
72408;SDS011;60402;48.082;11.628;2022-08-21T08:56:09;2.85;;;1.42;;
72408;SDS011;60402;48.082;11.628;2022-08-21T08:58:39;4.20;;;1.50;;
72408;SDS011;60402;48.082;11.628;2022-08-21T09:01:17;2.97;;;1.50;;
72408;SDS011;60402;48.082;11.628;2022-08-21T09:03:44;3.08;;;1.50;;
72408;SDS011;60402;48.082;11.628;2022-08-21T09:20:10;3.72;;;1.60;;
72408;SDS011;60402;48.082;11.628;2022-08-21T09:25:22;3.83;;;2.10;;
72408;SDS011;60402;48.082;11.628;2022-08-21T09:27:50;6.00;;;1.90;;
72408;SDS011;60402;48.082;11.628;2022-08-21T09:30:16;3.30;;;1.75;;
72408;SDS011;60402;48.082;11.628;2022-08-21T09:32:43;4.45;;;1.90;;
72408;SDS011;60402;48.082;11.628;2022-08-21T09:45:36;3.70;;;1.95;;
72408;SDS011;60402;48.082;11.628;2022-08-21T09:48:09;3.58;;;2.03;;
72408;SDS011;60402;48.082;11.628;2022-08-21T09:50:45;4.47;;;1.83;;
72408;SDS011;60402;48.082;11.628;2022-08-21T09:53:30;4.85;;;2.00;;
72408;SDS011;60402;48.082;11.628;2022-08-21T09:55:57;3.47;;;1.90;;
72408;SDS011;60402;48.082;11.628;2022-08-21T09:58:48;3.70;;;1.77;;
72408;SDS011;60402;48.082;11.628;2022-08-21T10:01:17;4.22;;;2.00;;
72408;SDS011;60402;48.082;11.628;2022-08-21T10:03:45;4.07;;;1.90;;
72408;SDS011;60402;48.082;11.628;2022-08-21T10:06:21;5.03;;;2.25;;
72408;SDS011;60402;48.082;11.628;2022-08-21T10:08:49;5.75;;;2.10;;
72408;SDS011;60402;48.082;11.628;2022-08-21T10:11:15;3.13;;;1.90;;
72408;SDS011;60402;48.082;11.628;2022-08-21T10:25:44;3.28;;;1.63;;
72408;SDS011;60402;48.082;11.628;2022-08-21T10:34:00;3.67;;;1.70;;
72408;SDS011;60402;48.082;11.628;2022-08-21T10:36:35;4.13;;;1.85;;
72408;SDS011;60402;48.082;11.628;2022-08-21T10:47:36;3.17;;;1.60;;
72408;SDS011;60402;48.082;11.628;2022-08-21T10:55:54;3.65;;;1.67;;
72408;SDS011;60402;48.082;11.628;2022-08-21T10:58:36;4.97;;;1.90;;
72408;SDS011;60402;48.082;11.628;2022-08-21T11:01:11;2.45;;;1.50;;
72408;SDS011;60402;48.082;11.628;2022-08-21T11:03:43;5.47;;;2.10;;
72408;SDS011;60402;48.082;11.628;2022-08-21T11:06:24;3.30;;;1.73;;
72408;SDS011;60402;48.082;11.628;2022-08-21T11:08:53;4.40;;;1.65;;
72408;SDS011;60402;48.082;11.628;2022-08-21T11:11:29;3.75;;;1.52;;
72408;SDS011;60402;48.082;11.628;2022-08-21T11:16:33;5.18;;;2.22;;
72408;SDS011;60402;48.082;11.628;2022-08-21T11:19:08;4.38;;;2.13;;
72408;SDS011;60402;48.082;11.628;2022-08-21T11:21:46;4.97;;;2.42;;
72408;SDS011;60402;48.082;11.628;2022-08-21T11:24:24;3.88;;;1.92;;
72408;SDS011;60402;48.082;11.628;2022-08-21T11:29:49;3.63;;;1.90;;
72408;SDS011;60402;48.082;11.628;2022-08-21T11:32:24;3.97;;;1.88;;
72408;SDS011;60402;48.082;11.628;2022-08-21T11:35:16;3.60;;;1.63;;
72408;SDS011;60402;48.082;11.628;2022-08-21T11:43:09;5.88;;;1.70;;
72408;SDS011;60402;48.082;11.628;2022-08-21T11:45:45;3.63;;;1.48;;
72408;SDS011;60402;48.082;11.628;2022-08-21T11:51:11;5.03;;;1.80;;
72408;SDS011;60402;48.082;11.628;2022-08-21T11:53:48;3.75;;;1.50;;
72408;SDS011;60402;48.082;11.628;2022-08-21T11:56:27;2.92;;;1.70;;
72408;SDS011;60402;48.082;11.628;2022-08-21T11:58:59;3.72;;;1.73;;
72408;SDS011;60402;48.082;11.628;2022-08-21T12:01:34;3.53;;;1.50;;
72408;SDS011;60402;48.082;11.628;2022-08-21T12:04:10;4.28;;;1.55;;
72408;SDS011;60402;48.082;11.628;2022-08-21T12:06:47;3.72;;;1.70;;
72408;SDS011;60402;48.082;11.628;2022-08-21T12:14:16;4.70;;;1.80;;
72408;SDS011;60402;48.082;11.628;2022-08-21T12:16:44;3.55;;;1.77;;
72408;SDS011;60402;48.082;11.628;2022-08-21T12:21:51;3.60;;;1.63;;
72408;SDS011;60402;48.082;11.628;2022-08-21T12:24:19;3.97;;;1.98;;
72408;SDS011;60402;48.082;11.628;2022-08-21T12:26:58;4.80;;;1.98;;
72408;SDS011;60402;48.082;11.628;2022-08-21T12:29:37;3.90;;;1.60;;
72408;SDS011;60402;48.082;11.628;2022-08-21T12:32:24;3.80;;;1.77;;
72408;SDS011;60402;48.082;11.628;2022-08-21T12:35:14;3.97;;;1.60;;
72408;SDS011;60402;48.082;11.628;2022-08-21T12:37:46;2.90;;;1.50;;
72408;SDS011;60402;48.082;11.628;2022-08-21T12:42:47;3.75;;;1.65;;
72408;SDS011;60402;48.082;11.628;2022-08-21T12:47:53;3.88;;;1.38;;
72408;SDS011;60402;48.082;11.628;2022-08-21T12:53:25;3.92;;;1.70;;
72408;SDS011;60402;48.082;11.628;2022-08-21T12:55:55;3.55;;;1.60;;
72408;SDS011;60402;48.082;11.628;2022-08-21T12:58:26;2.05;;;1.27;;
72408;SDS011;60402;48.082;11.628;2022-08-21T13:01:07;3.38;;;1.55;;
72408;SDS011;60402;48.082;11.628;2022-08-21T13:03:45;3.83;;;1.58;;
72408;SDS011;60402;48.082;11.628;2022-08-21T13:06:15;3.03;;;1.55;;
72408;SDS011;60402;48.082;11.628;2022-08-21T13:08:43;2.80;;;1.42;;
72408;SDS011;60402;48.082;11.628;2022-08-21T13:11:12;3.33;;;1.50;;
72408;SDS011;60402;48.082;11.628;2022-08-21T13:13:41;3.72;;;1.63;;
72408;SDS011;60402;48.082;11.628;2022-08-21T13:16:07;4.88;;;1.77;;
72408;SDS011;60402;48.082;11.628;2022-08-21T13:18:35;5.10;;;1.88;;
72408;SDS011;60402;48.082;11.628;2022-08-21T13:21:10;4.15;;;1.90;;
72408;SDS011;60402;48.082;11.628;2022-08-21T13:23:38;4.22;;;1.98;;
72408;SDS011;60402;48.082;11.628;2022-08-21T13:28:39;5.25;;;1.77;;
72408;SDS011;60402;48.082;11.628;2022-08-21T13:31:06;4.10;;;1.88;;
72408;SDS011;60402;48.082;11.628;2022-08-21T13:33:35;4.43;;;1.98;;
72408;SDS011;60402;48.082;11.628;2022-08-21T13:38:31;4.05;;;1.73;;
72408;SDS011;60402;48.082;11.628;2022-08-21T13:40:59;4.55;;;1.55;;
72408;SDS011;60402;48.082;11.628;2022-08-21T13:43:32;6.38;;;2.10;;
72408;SDS011;60402;48.082;11.628;2022-08-21T13:45:59;4.50;;;1.77;;
72408;SDS011;60402;48.082;11.628;2022-08-21T13:48:28;5.30;;;2.53;;
72408;SDS011;60402;48.082;11.628;2022-08-21T13:50:56;5.40;;;1.88;;
72408;SDS011;60402;48.082;11.628;2022-08-21T13:56:01;4.43;;;1.77;;
72408;SDS011;60402;48.082;11.628;2022-08-21T14:00:55;2.95;;;1.60;;
72408;SDS011;60402;48.082;11.628;2022-08-21T14:06:10;3.38;;;1.70;;
72408;SDS011;60402;48.082;11.628;2022-08-21T14:08:38;4.03;;;1.77;;
72408;SDS011;60402;48.082;11.628;2022-08-21T14:11:06;4.25;;;1.73;;
72408;SDS011;60402;48.082;11.628;2022-08-21T14:13:41;5.82;;;1.70;;
72408;SDS011;60402;48.082;11.628;2022-08-21T14:16:17;4.20;;;1.65;;
72408;SDS011;60402;48.082;11.628;2022-08-21T14:18:49;4.20;;;1.77;;
72408;SDS011;60402;48.082;11.628;2022-08-21T14:21:25;3.67;;;1.70;;
72408;SDS011;60402;48.082;11.628;2022-08-21T14:24:08;4.30;;;1.88;;
72408;SDS011;60402;48.082;11.628;2022-08-21T14:26:46;3.65;;;1.90;;
72408;SDS011;60402;48.082;11.628;2022-08-21T14:29:15;5.43;;;2.05;;
72408;SDS011;60402;48.082;11.628;2022-08-21T14:31:42;3.67;;;1.75;;
72408;SDS011;60402;48.082;11.628;2022-08-21T14:34:13;4.35;;;1.90;;
72408;SDS011;60402;48.082;11.628;2022-08-21T14:36:38;5.20;;;1.85;;
72408;SDS011;60402;48.082;11.628;2022-08-21T14:39:04;3.65;;;1.75;;
72408;SDS011;60402;48.082;11.628;2022-08-21T14:41:29;3.33;;;1.75;;
72408;SDS011;60402;48.082;11.628;2022-08-21T14:43:55;3.08;;;1.60;;
72408;SDS011;60402;48.082;11.628;2022-08-21T14:46:25;3.30;;;1.98;;
72408;SDS011;60402;48.082;11.628;2022-08-21T14:48:53;4.78;;;1.70;;
72408;SDS011;60402;48.082;11.628;2022-08-21T14:51:19;3.10;;;1.70;;
72408;SDS011;60402;48.082;11.628;2022-08-21T14:53:44;4.68;;;1.83;;
72408;SDS011;60402;48.082;11.628;2022-08-21T14:56:11;4.50;;;1.90;;
72408;SDS011;60402;48.082;11.628;2022-08-21T14:58:40;3.33;;;1.83;;
72408;SDS011;60402;48.082;11.628;2022-08-21T15:01:08;5.47;;;1.90;;
72408;SDS011;60402;48.082;11.628;2022-08-21T15:03:36;2.90;;;1.50;;
72408;SDS011;60402;48.082;11.628;2022-08-21T15:06:02;4.95;;;1.60;;
72408;SDS011;60402;48.082;11.628;2022-08-21T15:08:29;4.97;;;1.90;;
72408;SDS011;60402;48.082;11.628;2022-08-21T15:10:55;3.42;;;1.65;;
72408;SDS011;60402;48.082;11.628;2022-08-21T15:13:20;4.50;;;1.60;;
72408;SDS011;60402;48.082;11.628;2022-08-21T15:15:47;5.03;;;1.70;;
72408;SDS011;60402;48.082;11.628;2022-08-21T15:18:15;3.63;;;1.70;;
72408;SDS011;60402;48.082;11.628;2022-08-21T15:20:41;3.15;;;1.67;;
72408;SDS011;60402;48.082;11.628;2022-08-21T15:23:07;3.83;;;1.60;;
72408;SDS011;60402;48.082;11.628;2022-08-21T15:25:33;4.03;;;1.70;;
72408;SDS011;60402;48.082;11.628;2022-08-21T15:28:00;5.00;;;1.95;;
72408;SDS011;60402;48.082;11.628;2022-08-21T15:30:26;4.10;;;1.75;;
72408;SDS011;60402;48.082;11.628;2022-08-21T15:32:53;2.40;;;1.45;;
72408;SDS011;60402;48.082;11.628;2022-08-21T15:35:19;4.10;;;1.63;;
72408;SDS011;60402;48.082;11.628;2022-08-21T15:37:44;3.97;;;1.92;;
72408;SDS011;60402;48.082;11.628;2022-08-21T15:40:10;4.22;;;1.90;;
72408;SDS011;60402;48.082;11.628;2022-08-21T15:42:37;4.45;;;1.95;;
72408;SDS011;60402;48.082;11.628;2022-08-21T15:45:03;5.10;;;1.80;;
72408;SDS011;60402;48.082;11.628;2022-08-21T15:47:33;5.03;;;2.00;;
72408;SDS011;60402;48.082;11.628;2022-08-21T15:50:01;3.40;;;1.65;;
72408;SDS011;60402;48.082;11.628;2022-08-21T15:52:29;3.53;;;1.75;;
72408;SDS011;60402;48.082;11.628;2022-08-21T15:54:55;3.78;;;1.70;;
72408;SDS011;60402;48.082;11.628;2022-08-21T15:57:21;6.43;;;1.80;;
72408;SDS011;60402;48.082;11.628;2022-08-21T15:59:50;3.90;;;1.88;;
72408;SDS011;60402;48.082;11.628;2022-08-21T16:02:29;4.32;;;1.88;;
72408;SDS011;60402;48.082;11.628;2022-08-21T16:04:56;5.15;;;2.10;;
72408;SDS011;60402;48.082;11.628;2022-08-21T16:07:22;3.85;;;2.03;;
72408;SDS011;60402;48.082;11.628;2022-08-21T16:09:48;3.53;;;1.75;;
72408;SDS011;60402;48.082;11.628;2022-08-21T16:12:17;4.70;;;1.60;;
72408;SDS011;60402;48.082;11.628;2022-08-21T16:14:46;4.50;;;2.20;;
72408;SDS011;60402;48.082;11.628;2022-08-21T16:17:12;5.10;;;2.00;;
72408;SDS011;60402;48.082;11.628;2022-08-21T16:19:37;4.40;;;2.00;;
72408;SDS011;60402;48.082;11.628;2022-08-21T16:22:03;4.32;;;1.77;;
72408;SDS011;60402;48.082;11.628;2022-08-21T16:24:29;3.45;;;1.60;;
72408;SDS011;60402;48.082;11.628;2022-08-21T16:26:54;4.55;;;2.00;;